Time;durP1;ratioP1;P1;durP2;ratioP2;P2;SDS_P1;SDS_P2;PMS_P1;PMS_P2;Temp;Humidity;BMP_temperature;BMP_pressure;BME280_temperature;BME280_humidity;BME280_pressure;Samples;Min_cycle;Max_cycle;Signal;HPM_P1;HPM_P2
2023/07/18 00:01:56;;;;;;;10.95;6.78;;;;;;;13.57;77.79;100969.59;10153081;29;20051;-74
2023/07/18 00:06:59;;;;;;;12.15;6.65;;;;;;;13.48;77.94;100965.84;10155470;29;20125;-75
2023/07/18 00:12:02;;;;;;;13.43;7.68;;;;;;;13.49;77.91;100968.44;10172150;29;20047;-74
2023/07/18 00:17:06;;;;;;;10.88;6.63;;;;;;;13.48;77.95;100969.38;10167531;29;20044;-74
2023/07/18 00:22:09;;;;;;;16.02;7.18;;;;;;;13.41;77.47;100965.50;10156571;29;20060;-74
2023/07/18 00:27:16;;;;;;;15.45;7.18;;;;;;;13.40;77.71;100962.94;10154458;29;20040;-74
2023/07/18 00:32:20;;;;;;;13.27;6.75;;;;;;;13.25;77.27;100957.81;10154273;29;20043;-74
2023/07/18 00:37:23;;;;;;;17.25;7.10;;;;;;;13.00;77.22;100952.72;10159317;29;20051;-75
2023/07/18 00:42:26;;;;;;;16.63;7.30;;;;;;;12.88;77.62;100951.88;10157441;29;20046;-74
2023/07/18 00:47:30;;;;;;;17.58;7.53;;;;;;;12.81;78.02;100956.94;10157076;29;20111;-73
2023/07/18 00:52:36;;;;;;;21.23;7.25;;;;;;;12.82;77.77;100947.84;10148125;29;20041;-74
2023/07/18 00:57:40;;;;;;;17.40;7.45;;;;;;;12.87;77.73;100946.63;10147520;29;20088;-73
2023/07/18 01:02:46;;;;;;;20.40;7.07;;;;;;;12.84;77.64;100947.75;10158236;29;20043;-73
2023/07/18 01:07:50;;;;;;;19.77;7.53;;;;;;;12.72;77.62;100948.72;10161006;29;20138;-73
2023/07/18 01:12:54;;;;;;;26.30;7.57;;;;;;;12.71;77.49;100938.94;10159344;29;20048;-73
2023/07/18 01:18:02;;;;;;;17.30;7.20;;;;;;;12.63;77.47;100941.41;10156470;29;20059;-74
2023/07/18 01:23:06;;;;;;;15.30;7.43;;;;;;;12.62;77.51;100940.53;10156864;29;20040;-74
2023/07/18 01:28:10;;;;;;;17.50;6.60;;;;;;;12.65;77.83;100939.44;10158243;29;20526;-74
2023/07/18 01:33:13;;;;;;;20.00;7.10;;;;;;;12.66;77.25;100944.69;10151552;29;20051;-74
2023/07/18 01:38:17;;;;;;;17.38;8.18;;;;;;;12.64;77.45;100943.94;10153704;29;20099;-74
2023/07/18 01:43:21;;;;;;;16.08;8.48;;;;;;;12.63;78.46;100946.78;10146152;29;20040;-73
2023/07/18 01:48:24;;;;;;;16.95;8.93;;;;;;;12.64;79.12;100946.66;10144373;29;20040;-74
2023/07/18 01:53:28;;;;;;;14.90;8.35;;;;;;;12.57;79.75;100946.28;10146912;29;20045;-73
2023/07/18 01:58:31;;;;;;;19.02;7.90;;;;;;;12.55;79.60;100952.78;10155888;29;20057;-74
2023/07/18 02:03:34;;;;;;;17.55;8.80;;;;;;;12.58;79.56;100957.94;10158239;29;20041;-73
2023/07/18 02:08:38;;;;;;;18.38;9.18;;;;;;;12.51;79.55;100954.03;10156181;29;20047;-74
2023/07/18 02:13:41;;;;;;;17.80;8.02;;;;;;;12.55;79.08;100959.03;10164778;29;20040;-75
2023/07/18 02:18:47;;;;;;;21.02;7.65;;;;;;;12.43;79.50;100972.66;10163694;29;20059;-73
2023/07/18 02:23:52;;;;;;;18.80;8.98;;;;;;;12.23;80.15;100966.09;10151686;29;20420;-73
2023/07/18 02:28:55;;;;;;;19.20;7.82;;;;;;;12.33;79.66;100972.50;10149093;29;20062;-73
2023/07/18 02:34:00;;;;;;;25.95;8.80;;;;;;;12.31;79.76;100969.06;10152941;29;20129;-73
2023/07/18 02:39:07;;;;;;;15.45;7.85;;;;;;;12.47;78.69;100961.47;10152775;29;20052;-73
2023/07/18 02:44:11;;;;;;;14.93;7.70;;;;;;;12.56;78.42;100960.75;10151793;29;20115;-73
2023/07/18 02:49:13;;;;;;;15.63;7.97;;;;;;;12.53;77.94;100950.22;10157611;29;20472;-73
2023/07/18 02:54:18;;;;;;;13.10;8.45;;;;;;;12.52;78.16;100945.81;10152949;29;20052;-73
2023/07/18 02:59:21;;;;;;;19.58;8.10;;;;;;;12.51;78.13;100954.03;10144277;29;20052;-74
2023/07/18 03:04:24;;;;;;;14.00;7.80;;;;;;;12.64;77.58;100938.56;10157404;29;20136;-74
2023/07/18 03:09:28;;;;;;;14.93;8.00;;;;;;;12.69;77.07;100932.81;10155874;29;20139;-74
2023/07/18 03:14:31;;;;;;;14.65;7.55;;;;;;;12.65;77.03;100934.91;10154946;29;20064;-73
2023/07/18 03:19:34;;;;;;;14.20;7.60;;;;;;;12.68;76.52;100936.50;10154786;29;20051;-73
2023/07/18 03:24:39;;;;;;;13.73;7.47;;;;;;;12.66;76.39;100933.91;10139768;29;20055;-73
2023/07/18 03:29:42;;;;;;;19.95;8.18;;;;;;;12.71;76.81;100945.19;10143587;29;20045;-72
2023/07/18 03:34:45;;;;;;;17.45;7.85;;;;;;;12.76;76.70;100947.50;10151522;29;20048;-73
2023/07/18 03:39:49;;;;;;;12.93;7.28;;;;;;;12.82;76.30;100938.91;10150641;29;20040;-73
2023/07/18 03:44:52;;;;;;;15.05;7.82;;;;;;;12.78;75.82;100935.63;10162614;29;20083;-73
2023/07/18 03:49:55;;;;;;;16.48;8.25;;;;;;;12.66;75.90;100933.06;10152400;29;20079;-73
2023/07/18 03:54:59;;;;;;;17.42;7.65;;;;;;;12.41;75.95;100948.50;10153111;29;20666;-74
2023/07/18 04:00:12;;;;;;;17.73;7.10;;;;;;;12.37;76.22;100936.28;10153400;29;20044;-73
2023/07/18 04:05:15;;;;;;;;;;;;;;;12.28;75.94;100939.66;10157819;29;20048;-75
2023/07/18 04:10:19;;;;;;;18.45;8.43;;;;;;;12.30;76.44;100937.72;10155870;29;19947;-74
2023/07/18 04:15:22;;;;;;;16.65;6.55;;;;;;;12.45;76.41;100922.16;10171368;29;20509;-73
2023/07/18 04:20:25;;;;;;;21.13;7.57;;;;;;;12.69;76.19;100927.41;10152296;29;20516;-73
2023/07/18 04:25:32;;;;;;;17.83;7.65;;;;;;;12.87;75.43;100934.00;10163818;29;20518;-73
2023/07/18 04:30:35;;;;;;;22.30;7.95;;;;;;;12.88;74.72;100937.56;10157647;29;20491;-73
2023/07/18 04:35:39;;;;;;;16.58;7.85;;;;;;;12.91;74.92;100934.59;10156942;29;20116;-73
2023/07/18 04:40:44;;;;;;;14.57;8.05;;;;;;;12.78;74.97;100945.53;10152618;29;20186;-72
2023/07/18 04:45:48;;;;;;;20.42;7.55;;;;;;;12.69;75.56;100938.19;10153561;29;20087;-73
2023/07/18 04:50:58;;;;;;;15.73;7.90;;;;;;;12.74;75.76;100936.00;10159551;29;20131;-73
2023/07/18 04:56:04;;;;;;;21.17;8.35;;;;;;;12.72;75.96;100940.63;10162664;29;20480;-74
2023/07/18 05:01:08;;;;;;;17.15;7.50;;;;;;;12.73;75.98;100948.63;10161652;29;20084;-74
2023/07/18 05:06:10;;;;;;;15.02;7.03;;;;;;;12.73;76.02;100948.63;10161215;29;20135;-73
2023/07/18 05:11:15;;;;;;;18.23;8.48;;;;;;;12.77;76.49;100944.66;10159261;29;20492;-73
2023/07/18 05:16:18;;;;;;;16.40;7.45;;;;;;;12.94;76.46;100950.53;10156388;29;20105;-73
2023/07/18 05:21:21;;;;;;;17.60;6.88;;;;;;;13.14;75.86;100948.91;10153162;29;20052;-73
2023/07/18 05:26:25;;;;;;;14.23;7.07;;;;;;;13.29;75.67;100947.59;10157130;29;20441;-73
2023/07/18 05:31:28;;;;;;;21.67;7.53;;;;;;;13.36;75.09;100951.50;10157056;29;20045;-73
2023/07/18 05:36:31;;;;;;;19.23;7.75;;;;;;;13.46;74.73;100940.81;10148309;29;20100;-74
2023/07/18 05:41:35;;;;;;;13.98;6.45;;;;;;;13.64;74.06;100944.66;10153636;29;20048;-74
2023/07/18 05:46:38;;;;;;;15.23;5.50;;;;;;;13.73;74.12;100947.56;10162292;29;20048;-74
2023/07/18 05:51:43;;;;;;;14.55;6.05;;;;;;;13.83;73.64;100943.94;10154130;29;20045;-73
2023/07/18 05:56:47;;;;;;;17.88;6.10;;;;;;;13.87;74.35;100947.22;10156532;29;20044;-73
2023/07/18 06:01:50;;;;;;;12.75;5.93;;;;;;;14.05;74.17;100934.00;10160539;29;20051;-74
2023/07/18 06:06:54;;;;;;;18.23;5.28;;;;;;;14.28;74.39;100937.38;10161411;29;20059;-73
2023/07/18 06:11:59;;;;;;;13.55;5.63;;;;;;;14.48;74.57;100928.41;10160831;29;20507;-73
2023/07/18 06:17:02;;;;;;;17.00;5.18;;;;;;;14.61;74.48;100930.84;10170309;29;20127;-73
2023/07/18 06:22:05;;;;;;;15.90;5.85;;;;;;;14.78;73.98;100923.91;10149486;29;20055;-73
2023/07/18 06:27:10;;;;;;;13.50;5.65;;;;;;;15.06;74.09;100927.69;10151079;29;20047;-74
2023/07/18 06:32:13;;;;;;;17.08;5.10;;;;;;;15.33;72.97;100927.00;10156801;29;20040;-73
2023/07/18 06:37:16;;;;;;;10.25;4.38;;;;;;;15.50;69.24;100932.72;10157564;29;20543;-73
2023/07/18 06:42:20;;;;;;;14.50;5.65;;;;;;;15.81;70.57;100945.06;10152678;29;20048;-73
2023/07/18 06:47:23;;;;;;;8.40;4.50;;;;;;;16.14;70.53;100945.56;10143885;29;20055;-73
2023/07/18 06:52:26;;;;;;;10.10;3.65;;;;;;;16.28;66.01;100938.84;10148340;29;20132;-74
2023/07/18 06:57:33;;;;;;;9.15;4.00;;;;;;;16.35;65.06;100945.41;10155153;29;20427;-73
2023/07/18 07:02:36;;;;;;;13.25;3.95;;;;;;;16.38;64.98;100944.25;10162131;29;20048;-73
2023/07/18 07:07:39;;;;;;;11.63;3.42;;;;;;;16.78;63.68;100943.91;10155375;29;20155;-72
2023/07/18 07:12:43;;;;;;;9.68;4.20;;;;;;;16.96;63.04;100944.81;10147718;29;20048;-73
2023/07/18 07:17:46;;;;;;;10.02;4.30;;;;;;;17.29;61.49;100933.47;10154917;29;20051;-74
2023/07/18 07:22:49;;;;;;;8.48;3.55;;;;;;;17.20;60.95;100937.97;10158369;29;20040;-74
2023/07/18 07:27:53;;;;;;;6.30;3.17;;;;;;;17.14;61.50;100935.84;10150328;29;20055;-74
2023/07/18 07:32:56;;;;;;;8.77;3.00;;;;;;;17.63;61.59;100928.16;10147454;29;20096;-73
2023/07/18 07:38:03;;;;;;;6.75;3.05;;;;;;;18.74;57.87;100920.16;10139379;29;20083;-73
2023/07/18 07:43:11;;;;;;;11.70;2.90;;;;;;;19.45;55.35;100922.38;10158125;29;20044;-74
2023/07/18 07:48:15;;;;;;;5.68;3.15;;;;;;;20.26;53.14;100912.41;10157352;29;20071;-74
2023/07/18 07:53:18;;;;;;;9.63;3.10;;;;;;;20.25;52.01;100908.00;10156276;29;20040;-74
2023/07/18 07:58:22;;;;;;;5.80;2.78;;;;;;;20.26;52.14;100914.28;10146772;29;20044;-74
2023/07/18 08:03:25;;;;;;;6.20;3.15;;;;;;;20.20;52.83;100904.09;10147184;29;20067;-74
2023/07/18 08:08:28;;;;;;;9.90;3.40;;;;;;;20.90;50.75;100898.69;10154034;29;20051;-75
2023/07/18 08:13:32;;;;;;;9.90;3.88;;;;;;;20.69;50.56;100902.03;10159577;29;20088;-74
2023/07/18 08:18:36;;;;;;;7.22;3.10;;;;;;;20.01;52.43;100914.34;10168073;29;20044;-74
2023/07/18 08:23:39;;;;;;;9.73;3.55;;;;;;;19.41;52.97;100890.19;10152705;29;20083;-73
2023/07/18 08:28:43;;;;;;;6.90;2.88;;;;;;;19.76;53.08;100889.00;10154251;29;20048;-74
2023/07/18 08:33:46;;;;;;;7.40;3.08;;;;;;;20.33;51.69;100874.41;10164022;29;20048;-74
2023/07/18 08:38:50;;;;;;;5.20;2.75;;;;;;;20.72;51.03;100870.81;10165703;29;20048;-74
2023/07/18 08:43:55;;;;;;;6.97;3.10;;;;;;;20.79;50.96;100861.72;10163757;29;20076;-73
2023/07/18 08:48:58;;;;;;;13.98;3.72;;;;;;;20.88;49.69;100861.69;10153760;29;20520;-74
2023/07/18 08:54:01;;;;;;;8.38;3.42;;;;;;;20.37;50.78;100847.63;10153709;29;20051;-74
2023/07/18 08:59:05;;;;;;;6.38;3.05;;;;;;;20.97;49.25;100847.78;10158990;29;20048;-74
2023/07/18 09:04:08;;;;;;;9.20;3.85;;;;;;;21.20;49.01;100838.75;10161912;29;20063;-73
2023/07/18 09:09:16;;;;;;;11.30;3.70;;;;;;;21.01;49.18;100854.59;10160220;29;20062;-74
2023/07/18 09:14:24;;;;;;;7.00;3.00;;;;;;;21.30;48.80;100833.06;10155300;29;20464;-74
2023/07/18 09:19:38;;;;;;;8.02;3.40;;;;;;;21.97;47.21;100826.75;10156039;29;20404;-73
2023/07/18 09:24:41;;;;;;;7.18;3.15;;;;;;;21.72;46.27;100818.81;10156376;29;20479;-73
2023/07/18 09:29:49;;;;;;;4.93;2.30;;;;;;;22.02;45.84;100803.28;10163571;29;20151;-74
2023/07/18 09:34:53;;;;;;;9.63;2.05;;;;;;;20.98;46.21;100814.00;10150293;29;20056;-73
2023/07/18 09:39:56;;;;;;;5.38;2.40;;;;;;;21.54;45.57;100807.38;10151503;29;20142;-73
2023/07/18 09:45:02;;;;;;;4.65;2.08;;;;;;;21.78;45.18;100801.69;10148142;29;20654;-73
2023/07/18 09:50:14;;;;;;;7.00;2.40;;;;;;;21.58;45.82;100800.50;10152875;29;20467;-73
2023/07/18 09:55:24;;;;;;;6.28;2.45;;;;;;;22.02;44.38;100788.75;10158473;29;20051;-73
2023/07/18 10:00:30;;;;;;;3.72;1.52;;;;;;;22.49;42.85;100790.19;10148167;29;20036;-73
2023/07/18 10:05:33;;;;;;;5.15;2.00;;;;;;;23.53;41.90;100785.09;10146606;29;20048;-73
2023/07/18 10:10:36;;;;;;;4.80;2.40;;;;;;;23.86;41.63;100790.81;10146768;29;20048;-73
2023/07/18 10:16:09;;;;;;;6.85;2.50;;;;;;;23.44;42.71;100776.16;10150953;29;20068;-74
2023/07/18 10:21:27;;;;;;;5.35;2.25;;;;;;;24.96;40.28;100779.81;10161319;29;20057;-73
2023/07/18 10:26:31;;;;;;;4.85;2.58;;;;;;;24.04;40.10;100764.75;10155280;29;20040;-73
2023/07/18 10:31:35;;;;;;;5.38;2.30;;;;;;;22.52;43.53;100762.47;10150145;29;20572;-74
2023/07/18 10:36:40;;;;;;;5.55;2.08;;;;;;;24.38;40.34;100761.09;10151359;29;20412;-73
2023/07/18 10:41:44;;;;;;;3.83;2.45;;;;;;;24.75;38.84;100767.94;10161695;29;20128;-73
2023/07/18 10:46:46;;;;;;;4.15;2.00;;;;;;;24.75;36.48;100764.34;10161814;29;20055;-72
2023/07/18 10:51:54;;;;;;;6.28;2.15;;;;;;;23.29;39.02;100761.72;10158467;29;20535;-73
2023/07/18 10:56:57;;;;;;;6.82;2.30;;;;;;;22.54;41.05;100763.09;10149018;29;20060;-72
2023/07/18 11:08:48;;;;;;;3.17;2.20;;;;;;;24.49;36.75;100735.81;10153268;29;20123;-73
2023/07/18 11:13:51;;;;;;;2.00;1.58;;;;;;;25.11;37.61;100746.66;10156585;29;20541;-73
2023/07/18 11:18:54;;;;;;;2.78;1.52;;;;;;;25.22;35.16;100746.00;10150973;29;20120;-73
2023/07/18 11:23:59;;;;;;;4.05;1.83;;;;;;;23.53;38.22;100740.38;10139784;29;20045;-73
2023/07/18 11:29:05;;;;;;;2.80;1.48;;;;;;;23.60;37.64;100731.13;10154472;29;20052;-75
2023/07/18 11:34:09;;;;;;;3.67;1.35;;;;;;;23.25;39.12;100723.94;10149966;29;20040;-76
2023/07/18 11:39:21;;;;;;;2.65;2.17;;;;;;;23.20;38.97;100719.94;10154938;29;20057;-76
2023/07/18 11:44:25;;;;;;;6.13;1.67;;;;;;;23.08;38.01;100713.25;10144424;29;20051;-76
2023/07/18 11:49:35;;;;;;;1.92;1.13;;;;;;;23.29;37.14;100700.59;10139667;29;20066;-76
2023/07/18 11:54:41;;;;;;;3.85;1.20;;;;;;;23.37;37.77;100701.28;10150783;29;20047;-73
2023/07/18 11:59:44;;;;;;;1.80;1.08;;;;;;;24.61;36.25;100685.75;10156175;29;20523;-73
2023/07/18 12:04:47;;;;;;;2.45;1.20;;;;;;;25.23;34.57;100664.38;10160662;29;20114;-73
2023/07/18 12:09:51;;;;;;;4.18;1.30;;;;;;;25.75;34.31;100655.16;10157073;29;20535;-74
2023/07/18 12:14:54;;;;;;;2.95;1.25;;;;;;;25.77;34.78;100661.28;10147786;29;20044;-74
2023/07/18 12:19:57;;;;;;;1.38;1.08;;;;;;;26.10;31.76;100645.69;10163528;29;20044;-75
2023/07/18 12:25:01;;;;;;;1.02;0.85;;;;;;;25.63;32.46;100634.88;10161359;29;20064;-75
2023/07/18 12:30:05;;;;;;;1.55;0.80;;;;;;;26.00;32.65;100624.13;10159787;29;20142;-75
2023/07/18 12:35:09;;;;;;;1.20;0.90;;;;;;;25.76;31.78;100621.09;10157919;29;20038;-75
2023/07/18 12:40:14;;;;;;;2.55;0.93;;;;;;;25.89;31.28;100619.31;10150108;29;20134;-74
2023/07/18 12:45:21;;;;;;;1.15;0.80;;;;;;;25.15;32.31;100597.63;10160981;29;20156;-74
2023/07/18 12:50:27;;;;;;;2.28;0.80;;;;;;;26.19;31.51;100581.03;10162743;29;20415;-74
2023/07/18 12:55:31;;;;;;;1.83;1.00;;;;;;;27.05;29.69;100576.72;10161891;29;20048;-74
2023/07/18 13:00:35;;;;;;;2.70;1.00;;;;;;;27.32;29.46;100586.38;10159230;29;20040;-74
2023/07/18 13:05:38;;;;;;;3.88;1.00;;;;;;;27.35;29.18;100591.41;10150401;29;20043;-74
2023/07/18 13:10:42;;;;;;;1.50;0.88;;;;;;;25.80;30.61;100597.56;10165680;29;20047;-74
2023/07/18 13:15:45;;;;;;;3.80;1.35;;;;;;;25.60;32.76;100589.41;10162631;29;20055;-74
2023/07/18 13:20:48;;;;;;;1.75;0.98;;;;;;;25.43;31.79;100595.63;10161026;29;20048;-74
2023/07/18 13:25:52;;;;;;;1.55;1.33;;;;;;;24.78;32.80;100601.88;10146807;29;20597;-74
2023/07/18 13:30:55;;;;;;;3.45;1.38;;;;;;;27.38;31.21;100587.34;10146729;29;20060;-74
2023/07/18 13:35:58;;;;;;;2.28;1.30;;;;;;;27.22;29.82;100586.06;10152615;29;20047;-72
2023/07/18 13:41:07;;;;;;;2.05;0.88;;;;;;;25.31;33.00;100590.78;10154557;29;20049;-72
2023/07/18 13:46:10;;;;;;;1.08;0.80;;;;;;;25.68;31.23;100571.84;10165734;29;20096;-73
2023/07/18 13:51:15;;;;;;;1.52;1.00;;;;;;;26.98;30.71;100573.19;10155174;29;20916;-73
2023/07/18 13:56:19;;;;;;;1.27;0.90;;;;;;;27.24;30.36;100559.09;10153890;29;20036;-73
2023/07/18 14:01:23;;;;;;;2.83;1.10;;;;;;;26.15;30.64;100560.53;10159951;29;20492;-73
2023/07/18 14:06:26;;;;;;;2.75;1.40;;;;;;;24.67;32.04;100578.63;10164956;29;20044;-72
2023/07/18 14:11:30;;;;;;;1.67;1.00;;;;;;;24.63;32.94;100573.78;10161678;29;20474;-72
2023/07/18 14:16:33;;;;;;;2.28;1.13;;;;;;;24.42;33.32;100572.94;10156771;29;20045;-72
2023/07/18 14:21:36;;;;;;;2.95;1.10;;;;;;;25.69;31.72;100558.91;10159298;29;20052;-73
2023/07/18 14:26:40;;;;;;;1.30;1.17;;;;;;;27.03;30.57;100546.59;10164710;29;20493;-73
2023/07/18 14:31:43;;;;;;;1.70;1.38;;;;;;;26.27;30.93;100534.84;10159959;29;20044;-74
2023/07/18 14:36:46;;;;;;;4.18;1.20;;;;;;;28.42;28.77;100521.72;10147741;29;20058;-73
2023/07/18 14:41:50;;;;;;;1.27;0.80;;;;;;;26.88;30.02;100521.34;10142308;29;20052;-74
2023/07/18 14:46:53;;;;;;;3.33;1.25;;;;;;;27.54;29.60;100511.44;10146242;29;20496;-74
2023/07/18 14:51:56;;;;;;;3.25;1.13;;;;;;;26.60;30.11;100500.63;10149056;29;20044;-74
2023/07/18 14:57:01;;;;;;;1.95;1.02;;;;;;;26.85;28.85;100483.22;10146296;29;20044;-74
2023/07/18 15:02:05;;;;;;;1.20;1.10;;;;;;;28.65;28.79;100465.63;10151631;29;20115;-75
2023/07/18 15:07:09;;;;;;;1.73;0.95;;;;;;;27.38;28.71;100475.13;10136657;29;20044;-74
2023/07/18 15:12:13;;;;;;;1.92;1.48;;;;;;;26.92;29.10;100471.03;10144849;29;20052;-74
2023/07/18 15:17:16;;;;;;;4.32;1.30;;;;;;;26.65;29.24;100464.13;10154479;29;20036;-74
2023/07/18 15:22:19;;;;;;;2.08;1.17;;;;;;;26.19;30.08;100459.91;10149196;29;20064;-74
2023/07/18 15:27:24;;;;;;;2.38;1.50;;;;;;;25.95;30.01;100445.94;10153183;29;20041;-75
2023/07/18 15:32:27;;;;;;;2.53;1.50;;;;;;;25.89;31.01;100437.72;10137238;29;20068;-74
2023/07/18 15:37:29;;;;;;;2.25;1.20;;;;;;;27.10;29.09;100428.00;10147537;29;20050;-74
2023/07/18 15:42:34;;;;;;;2.20;1.40;;;;;;;26.10;29.87;100434.56;10164244;29;20496;-74
2023/07/18 15:47:37;;;;;;;1.95;1.42;;;;;;;25.24;31.66;100425.03;10156873;29;20041;-74
2023/07/18 15:52:40;;;;;;;1.85;1.30;;;;;;;26.36;31.46;100421.66;10157249;29;20048;-74
2023/07/18 15:57:44;;;;;;;2.22;1.45;;;;;;;26.33;30.57;100413.84;10153241;29;20048;-75
2023/07/18 16:02:47;;;;;;;4.50;1.38;;;;;;;26.66;29.46;100413.50;10149884;29;20052;-74
2023/07/18 16:07:50;;;;;;;2.88;1.90;;;;;;;26.89;29.80;100404.53;10163858;29;20094;-74
2023/07/18 16:12:55;;;;;;;4.25;1.77;;;;;;;27.34;28.78;100393.06;10157861;29;20043;-74
2023/07/18 16:18:02;;;;;;;2.70;1.80;;;;;;;27.03;29.52;100392.25;10159235;29;20646;-75
2023/07/18 16:23:06;;;;;;;3.58;1.60;;;;;;;27.38;29.63;100384.09;10156169;29;20144;-75
2023/07/18 16:28:10;;;;;;;2.60;1.55;;;;;;;28.23;28.81;100380.16;10161364;29;20120;-75
2023/07/18 16:33:13;;;;;;;2.20;2.00;;;;;;;28.41;28.32;100378.31;10169394;29;20118;-75
2023/07/18 16:38:16;;;;;;;2.15;1.90;;;;;;;28.05;29.74;100372.00;10167028;29;20041;-75
2023/07/18 16:43:21;;;;;;;3.25;1.67;;;;;;;27.96;28.40;100370.66;10161739;29;20052;-75
2023/07/18 16:48:26;;;;;;;2.88;1.58;;;;;;;28.63;27.24;100367.50;10156174;29;20044;-75
2023/07/18 16:53:29;;;;;;;5.80;1.95;;;;;;;30.02;25.82;100357.84;10166121;29;20171;-75
2023/07/18 16:58:33;;;;;;;3.60;1.80;;;;;;;30.90;25.26;100355.97;10163964;29;20424;-75
2023/07/18 17:03:36;;;;;;;4.30;2.15;;;;;;;31.04;24.76;100350.84;10164678;29;20503;-75
2023/07/18 17:08:39;;;;;;;3.35;1.92;;;;;;;31.97;23.67;100342.25;10159808;29;20036;-75
2023/07/18 17:13:43;;;;;;;3.95;2.33;;;;;;;31.15;25.04;100349.03;10148531;29;20040;-74
2023/07/18 17:18:46;;;;;;;3.60;1.90;;;;;;;34.08;22.10;100338.84;10159742;29;20424;-75
2023/07/18 17:23:49;;;;;;;3.85;2.25;;;;;;;32.28;23.71;100342.47;10161169;29;20411;-75
2023/07/18 17:28:53;;;;;;;4.10;1.80;;;;;;;33.52;23.12;100338.91;10156785;29;20048;-75
2023/07/18 17:33:58;;;;;;;2.40;1.90;;;;;;;32.97;23.53;100319.09;10156695;29;20530;-75
2023/07/18 17:39:01;;;;;;;2.08;1.80;;;;;;;36.29;21.90;100324.25;10151966;29;20044;-76
2023/07/18 17:44:05;;;;;;;4.28;2.70;;;;;;;36.76;20.87;100306.56;10151008;29;20522;-76
2023/07/18 17:49:08;;;;;;;4.38;2.85;;;;;;;33.81;22.83;100311.31;10159406;29;20119;-76
2023/07/18 17:54:11;;;;;;;3.63;2.95;;;;;;;32.63;23.96;100313.13;10155383;29;20041;-76
2023/07/18 17:59:16;;;;;;;3.70;3.10;;;;;;;30.39;25.74;100313.78;10159569;29;20416;-76
2023/07/18 18:04:18;;;;;;;7.57;3.20;;;;;;;27.51;29.56;100316.91;10148451;29;20047;-76
2023/07/18 18:09:22;;;;;;;5.20;2.78;;;;;;;25.30;32.45;100321.59;10156106;29;20052;-76
2023/07/18 18:14:26;;;;;;;2.88;2.30;;;;;;;24.91;33.17;100305.16;10156019;29;20056;-76
2023/07/18 18:19:29;;;;;;;2.75;2.03;;;;;;;24.27;34.08;100309.66;10153115;29;20036;-76
2023/07/18 18:24:32;;;;;;;3.50;2.05;;;;;;;23.66;36.25;100299.81;10154318;29;20146;-76
2023/07/18 18:29:36;;;;;;;5.07;2.33;;;;;;;23.47;36.82;100303.44;10149414;29;20411;-75
2023/07/18 18:34:39;;;;;;;2.58;2.00;;;;;;;23.29;38.45;100290.38;10165480;29;20415;-75
2023/07/18 18:40:02;;;;;;;4.40;2.05;;;;;;;23.01;38.83;100298.75;10166311;29;20044;-76
2023/07/18 18:45:07;;;;;;;2.30;1.80;;;;;;;22.70;39.67;100289.19;10163097;29;20056;-76
2023/07/18 18:50:11;;;;;;;4.55;2.33;;;;;;;22.43;39.98;100293.72;10158031;29;20508;-75
2023/07/18 18:55:15;;;;;;;4.03;2.45;;;;;;;22.24;41.67;100284.38;10150400;29;20964;-75
2023/07/18 19:00:24;;;;;;;3.72;2.35;;;;;;;22.03;42.00;100279.84;10153270;29;20040;-75
2023/07/18 19:05:27;;;;;;;2.50;2.15;;;;;;;21.86;42.30;100278.50;10161068;29;20052;-75
2023/07/18 19:10:30;;;;;;;5.60;2.50;;;;;;;21.65;42.86;100273.91;10155683;29;20040;-76
2023/07/18 19:15:35;;;;;;;4.63;2.13;;;;;;;21.48;43.12;100272.53;10152170;29;20049;-75
2023/07/18 19:20:38;;;;;;;3.20;2.42;;;;;;;21.14;42.70;100269.50;10150807;29;20052;-75
2023/07/18 19:25:41;;;;;;;6.50;2.40;;;;;;;21.01;43.42;100263.91;10149211;29;20036;-74
2023/07/18 19:30:45;;;;;;;6.30;2.58;;;;;;;21.00;43.39;100271.25;10162298;29;20044;-75
2023/07/18 19:35:48;;;;;;;3.22;2.17;;;;;;;20.90;43.90;100276.19;10160219;29;20041;-75
2023/07/18 19:40:51;;;;;;;3.42;2.17;;;;;;;20.79;43.84;100274.00;10157609;29;20040;-74
2023/07/18 19:45:55;;;;;;;5.70;2.50;;;;;;;20.71;44.58;100276.84;10146456;29;20514;-75
2023/07/18 19:50:58;;;;;;;4.40;2.22;;;;;;;20.53;44.40;100274.53;10155385;29;20436;-74
2023/07/18 19:56:02;;;;;;;3.30;2.35;;;;;;;20.44;43.86;100278.41;10149392;29;20040;-74
2023/07/18 20:01:06;;;;;;;3.47;2.25;;;;;;;19.98;44.35;100284.09;10153430;29;20044;-74
2023/07/18 20:06:09;;;;;;;3.10;2.33;;;;;;;19.60;43.98;100284.16;10151905;29;20701;-74
2023/07/18 20:11:12;;;;;;;6.00;2.20;;;;;;;19.71;44.04;100277.41;10145403;29;20504;-74
2023/07/18 20:16:17;;;;;;;3.65;2.03;;;;;;;19.76;43.92;100277.69;10158829;29;20056;-74
2023/07/18 20:21:20;;;;;;;4.32;2.65;;;;;;;19.75;44.77;100282.31;10154680;29;20148;-73
2023/07/18 20:26:24;;;;;;;6.28;2.70;;;;;;;19.50;43.44;100278.94;10163859;29;20040;-73
2023/07/18 20:31:28;;;;;;;4.05;2.70;;;;;;;19.39;43.46;100273.94;10158044;29;20043;-73
2023/07/18 20:36:31;;;;;;;4.38;2.53;;;;;;;19.39;43.66;100263.03;10170329;29;20040;-74
2023/07/18 20:41:34;;;;;;;3.92;2.22;;;;;;;19.48;44.30;100270.13;10164276;29;20048;-73
2023/07/18 20:46:39;;;;;;;4.40;2.67;;;;;;;19.60;44.50;100268.66;10165577;29;20036;-73
2023/07/18 20:51:42;;;;;;;7.20;2.60;;;;;;;19.49;44.06;100273.69;10162266;29;20044;-74
2023/07/18 20:56:45;;;;;;;3.20;1.85;;;;;;;19.43;44.70;100270.66;10162867;29;20102;-73
2023/07/18 21:01:49;;;;;;;3.63;2.42;;;;;;;19.28;44.87;100271.66;10149573;29;20044;-74
2023/07/18 21:06:52;;;;;;;4.03;2.20;;;;;;;19.18;44.96;100264.59;10158249;29;20393;-74
2023/07/18 21:11:55;;;;;;;3.28;1.90;;;;;;;19.10;45.01;100263.81;10156850;29;20058;-73
2023/07/18 21:17:00;;;;;;;4.82;2.20;;;;;;;19.10;45.33;100267.38;10160320;29;20039;-74
2023/07/18 21:22:03;;;;;;;3.83;2.58;;;;;;;19.22;46.15;100265.06;10141871;29;20050;-75
2023/07/18 21:27:07;;;;;;;3.35;2.20;;;;;;;19.21;45.87;100266.94;10141312;29;20052;-74
2023/07/18 21:32:11;;;;;;;3.70;2.33;;;;;;;19.12;46.39;100267.22;10158694;29;20817;-73
2023/07/18 21:37:14;;;;;;;5.28;2.95;;;;;;;19.02;47.13;100270.19;10157268;29;20115;-74
2023/07/18 21:42:17;;;;;;;4.43;2.33;;;;;;;18.92;47.48;100264.97;10157273;29;20415;-74
2023/07/18 21:47:22;;;;;;;3.65;2.20;;;;;;;18.92;48.27;100267.69;10146609;29;20055;-73
2023/07/18 21:52:25;;;;;;;7.07;2.95;;;;;;;18.56;49.62;100272.84;10146895;29;20083;-74
2023/07/18 21:57:28;;;;;;;4.63;3.22;;;;;;;18.53;50.15;100270.50;10152652;29;20040;-75
2023/07/18 22:02:36;;;;;;;6.88;2.92;;;;;;;18.41;51.20;100256.44;10153026;29;20205;-74
2023/07/18 22:07:39;;;;;;;5.80;2.55;;;;;;;18.36;52.00;100254.25;10156870;29;20047;-74
2023/07/18 22:12:42;;;;;;;6.25;2.85;;;;;;;18.34;52.60;100258.19;10150353;29;20048;-74
2023/07/18 22:17:46;;;;;;;3.85;2.60;;;;;;;18.36;52.17;100262.41;10145005;29;20051;-74
2023/07/18 22:22:49;;;;;;;4.70;2.83;;;;;;;18.33;52.44;100251.06;10155493;29;20057;-73
2023/07/18 22:27:52;;;;;;;6.30;3.05;;;;;;;18.24;52.52;100268.41;10156955;29;20045;-74
2023/07/18 22:32:56;;;;;;;5.45;2.83;;;;;;;18.19;53.09;100260.81;10153332;29;20048;-73
2023/07/18 22:38:00;;;;;;;6.25;3.30;;;;;;;18.09;53.42;100246.59;10148293;29;20045;-74
2023/07/18 22:43:03;;;;;;;5.95;3.55;;;;;;;17.99;53.32;100246.81;10141918;29;20049;-73
2023/07/18 22:48:08;;;;;;;5.00;3.33;;;;;;;17.95;53.51;100240.00;10148892;29;20423;-74
2023/07/18 22:53:11;;;;;;;3.78;2.58;;;;;;;17.90;54.02;100240.50;10149597;29;20058;-73
2023/07/18 22:58:14;;;;;;;7.53;3.40;;;;;;;17.82;54.17;100242.41;10151074;29;20041;-73
2023/07/18 23:03:18;;;;;;;5.13;3.33;;;;;;;17.75;54.52;100236.84;10147515;29;20113;-73
2023/07/18 23:08:21;;;;;;;5.22;3.30;;;;;;;17.65;54.96;100230.75;10143207;29;20047;-74
2023/07/18 23:13:24;;;;;;;3.88;2.85;;;;;;;17.31;55.40;100233.72;10149552;29;20120;-74
2023/07/18 23:18:28;;;;;;;9.48;3.58;;;;;;;16.72;57.59;100226.56;10152900;29;20046;-75